createdAt,value
2017-06-29T15:25:48.658Z,975.13
2017-06-29T15:26:48.607Z,975.05
2017-06-29T15:27:48.606Z,975.02
2017-06-29T15:28:48.608Z,975.04
2017-06-29T15:29:48.609Z,975.01
2017-06-29T15:30:49.414Z,974.94
2017-06-29T15:31:48.616Z,974.98
2017-06-29T15:32:48.619Z,974.97
2017-06-29T15:33:48.622Z,975.02
2017-06-29T15:34:48.627Z,974.93
2017-06-29T15:35:48.630Z,974.96
2017-06-29T15:36:48.641Z,975.04
2017-06-29T15:37:48.639Z,975
2017-06-29T15:38:48.644Z,975.11
2017-06-29T15:39:48.649Z,975.21
2017-06-29T15:40:48.654Z,975.13
2017-06-29T15:41:48.658Z,975
2017-06-29T15:42:48.663Z,975.07
2017-06-29T15:43:48.667Z,975.09
2017-06-29T15:44:48.673Z,975.13
2017-06-29T15:45:48.678Z,975.16
2017-06-29T15:46:48.704Z,975.11
2017-06-29T15:47:48.688Z,975.17
2017-06-29T15:48:48.693Z,975.07
2017-06-29T15:49:48.702Z,975.23
2017-06-29T15:50:48.702Z,975.24
2017-06-29T15:51:48.707Z,975.27
2017-06-29T15:52:48.713Z,975.34
2017-06-29T15:53:48.720Z,975.37
2017-06-29T15:54:48.722Z,975.28
2017-06-29T15:55:48.727Z,975.36
2017-06-29T15:56:48.732Z,975.29
2017-06-29T15:57:48.736Z,975.37
2017-06-29T15:58:48.749Z,975.33
2017-06-29T15:59:48.765Z,975.35
2017-06-29T16:00:48.752Z,975.22
2017-06-29T16:01:48.756Z,975.18
2017-06-29T16:02:48.761Z,975.22
2017-06-29T16:03:48.766Z,975.18
2017-06-29T16:04:48.771Z,975.16
2017-06-29T16:05:48.776Z,975.12
2017-06-29T16:06:48.780Z,975.1
2017-06-29T16:07:48.786Z,975.13
2017-06-29T16:08:48.790Z,975.09
2017-06-29T16:09:48.799Z,975.09
2017-06-29T16:10:48.800Z,975.08
2017-06-29T16:11:48.806Z,975.07
2017-06-29T16:12:48.810Z,975.07
2017-06-29T16:13:48.815Z,975.1
2017-06-29T16:14:48.826Z,975.23
2017-06-29T16:15:48.826Z,975.23
2017-06-29T16:16:48.832Z,975.26
2017-06-29T16:17:48.834Z,975.39
2017-06-29T16:18:48.839Z,975.38
2017-06-29T16:19:48.844Z,975.37
2017-06-29T16:20:48.850Z,975.36
2017-06-29T16:21:48.853Z,975.4
2017-06-29T16:22:48.861Z,975.38
2017-06-29T16:23:48.863Z,975.39
2017-06-29T16:24:48.907Z,975.31
2017-06-29T16:25:48.873Z,975.34
2017-06-29T16:26:48.930Z,975.39
2017-06-29T16:27:48.883Z,975.45
2017-06-29T16:28:48.894Z,975.56
2017-06-29T16:29:48.893Z,975.49
2017-06-29T16:30:48.897Z,975.54
2017-06-29T16:31:48.902Z,975.58
2017-06-29T16:32:48.907Z,975.47
2017-06-29T16:33:48.912Z,975.54
2017-06-29T16:34:48.916Z,975.55
2017-06-29T16:35:48.923Z,975.47
2017-06-29T16:36:48.928Z,975.47
2017-06-29T16:37:48.932Z,975.45
2017-06-29T16:38:48.936Z,975.55
2017-06-29T16:39:48.945Z,975.57
2017-06-29T16:40:48.955Z,975.55
2017-06-29T16:41:49.203Z,975.61
2017-06-29T16:42:48.956Z,975.57
2017-06-29T16:43:48.965Z,975.62
2017-06-29T16:44:48.968Z,975.6
2017-06-29T16:45:48.972Z,975.69
2017-06-29T16:46:48.977Z,975.79
2017-06-29T16:47:48.980Z,975.83
2017-06-29T16:48:48.986Z,975.8
2017-06-29T16:49:48.990Z,975.84
2017-06-29T16:50:48.995Z,975.9
2017-06-29T16:51:49.000Z,975.91
2017-06-29T16:52:49.004Z,975.92
2017-06-29T16:53:49.019Z,975.93
2017-06-29T16:54:49.019Z,975.97
2017-06-29T16:55:49.021Z,976.02
2017-06-29T16:56:49.023Z,975.95
2017-06-29T16:57:49.028Z,975.95
2017-06-29T16:58:49.033Z,976
2017-06-29T16:59:49.037Z,976.05
2017-06-29T17:00:49.042Z,976.04
2017-06-29T17:01:49.047Z,976.09
2017-06-29T17:02:49.051Z,976.14
2017-06-29T17:03:49.055Z,976.11
2017-06-29T17:04:49.061Z,976.16
2017-06-29T17:05:49.064Z,976.25
2017-06-29T17:06:49.069Z,976.21
2017-06-29T17:07:49.074Z,976.27
2017-06-29T17:08:49.078Z,976.27
2017-06-29T17:09:49.082Z,976.34
2017-06-29T17:10:49.085Z,976.35
2017-06-29T17:11:49.090Z,976.32
2017-06-29T17:12:49.095Z,976.29
2017-06-29T17:13:49.099Z,976.27
2017-06-29T17:14:49.107Z,976.32
2017-06-29T17:15:49.108Z,976.17
2017-06-29T17:16:49.113Z,976.18
2017-06-29T17:17:49.117Z,976.15
2017-06-29T17:18:49.121Z,976.14
2017-06-29T17:19:49.126Z,976.19
2017-06-29T17:20:49.131Z,976.19
2017-06-29T17:21:49.134Z,976.27
2017-06-29T17:22:49.142Z,976.24
2017-06-29T17:23:49.143Z,976.28
2017-06-29T17:24:49.148Z,976.31
2017-06-29T17:25:49.153Z,976.43
2017-06-29T17:26:49.157Z,976.42
2017-06-29T17:27:49.163Z,976.46
2017-06-29T17:28:49.165Z,976.45
2017-06-29T17:29:49.199Z,976.49
2017-06-29T17:30:49.201Z,976.57
2017-06-29T17:31:49.178Z,976.55
2017-06-29T17:32:49.182Z,976.56
2017-06-29T17:33:49.187Z,976.56
2017-06-29T17:34:49.196Z,976.54
2017-06-29T17:35:49.196Z,976.56
2017-06-29T17:36:49.227Z,976.56
2017-06-29T17:37:49.204Z,976.51
2017-06-29T17:38:49.217Z,976.58
2017-06-29T17:39:49.213Z,976.55
2017-06-29T17:40:49.216Z,976.5
2017-06-29T17:41:49.221Z,976.59
2017-06-29T17:42:49.232Z,976.6
2017-06-29T17:43:49.229Z,976.59
2017-06-29T17:45:49.240Z,976.63
2017-06-29T17:46:49.243Z,976.58
2017-06-29T17:47:49.247Z,976.62
2017-06-29T17:48:49.251Z,976.65
2017-06-29T17:49:49.255Z,976.7
2017-06-29T17:50:49.262Z,976.73
2017-06-29T17:51:49.278Z,976.67
2017-06-29T17:52:49.269Z,976.66
2017-06-29T17:53:49.276Z,976.67
2017-06-29T17:54:49.279Z,976.68
2017-06-29T17:55:49.281Z,976.59
2017-06-29T17:56:49.285Z,976.65
2017-06-29T17:57:49.298Z,976.71
2017-06-29T17:58:49.309Z,976.74
2017-06-29T17:59:49.297Z,976.77
2017-06-29T18:00:49.301Z,976.82
2017-06-29T18:01:49.306Z,976.8
2017-06-29T18:02:49.309Z,976.83
2017-06-29T18:03:49.313Z,976.89
2017-06-29T18:04:49.318Z,976.91
2017-06-29T18:05:49.321Z,976.94
2017-06-29T18:06:49.332Z,976.91
2017-06-29T18:07:49.330Z,976.92
2017-06-29T18:08:49.335Z,976.94
2017-06-29T18:09:49.338Z,976.97
2017-06-29T18:10:49.342Z,977.1
2017-06-29T18:11:49.345Z,977.12
2017-06-29T18:12:49.350Z,977.23
2017-06-29T18:13:49.353Z,977.34
2017-06-29T18:14:49.360Z,977.23
2017-06-29T18:15:49.363Z,977.26
2017-06-29T18:16:49.362Z,977.24
2017-06-29T18:17:49.366Z,977.27
2017-06-29T18:18:49.381Z,977.2
2017-06-29T18:19:49.374Z,977.22
2017-06-29T18:20:49.383Z,977.29
2017-06-29T18:21:49.385Z,977.23
2017-06-29T18:22:49.384Z,977.2
2017-06-29T18:23:49.400Z,977.3
2017-06-29T18:24:49.390Z,977.27
2017-06-29T18:25:49.397Z,977.26
2017-06-29T18:26:49.398Z,977.27
2017-06-29T18:27:49.404Z,977.28
2017-06-29T18:28:49.404Z,977.17
2017-06-29T18:29:49.408Z,977.22
2017-06-29T18:30:49.412Z,977.23
2017-06-29T18:31:49.414Z,977.24
2017-06-29T18:32:49.418Z,977.28
2017-06-29T18:33:49.422Z,977.29
2017-06-29T18:34:49.428Z,977.3
2017-06-29T18:35:49.468Z,977.26
2017-06-29T18:36:49.436Z,977.34
2017-06-29T18:37:49.435Z,977.36
2017-06-29T18:38:49.440Z,977.34
2017-06-29T18:39:49.441Z,977.41
2017-06-29T18:40:49.457Z,977.44
2017-06-29T18:41:49.448Z,977.38
2017-06-29T18:42:49.454Z,977.41
2017-06-29T18:43:49.454Z,977.46
2017-06-29T18:44:49.457Z,977.45
2017-06-29T18:45:49.462Z,977.46
2017-06-29T18:46:49.463Z,977.51
2017-06-29T18:47:49.473Z,977.51
2017-06-29T18:48:49.477Z,977.53
2017-06-29T18:49:49.481Z,977.54
2017-06-29T18:50:49.481Z,977.56
2017-06-29T18:51:49.479Z,977.59
2017-06-29T18:52:49.484Z,977.59
2017-06-29T18:53:49.485Z,977.58
2017-06-29T18:54:49.489Z,977.63
2017-06-29T18:55:49.492Z,977.65
2017-06-29T18:56:49.496Z,977.71
2017-06-29T18:57:49.498Z,977.68
2017-06-29T18:58:49.502Z,977.71
2017-06-29T18:59:49.527Z,977.76
2017-06-29T19:00:49.509Z,977.74
2017-06-29T19:01:49.517Z,977.76
2017-06-29T19:02:49.514Z,977.75
2017-06-29T19:03:49.519Z,977.72
2017-06-29T19:04:49.520Z,977.75
2017-06-29T19:05:49.523Z,977.79
2017-06-29T19:06:49.526Z,977.84
2017-06-29T19:07:49.529Z,977.87
2017-06-29T19:08:49.532Z,977.84
2017-06-29T19:09:49.535Z,977.95
2017-06-29T19:10:49.546Z,977.92
2017-06-29T19:11:49.542Z,977.97
2017-06-29T19:12:50.546Z,978
2017-06-29T19:13:49.551Z,977.98
2017-06-29T19:14:49.593Z,977.94
2017-06-29T19:15:49.553Z,977.96
2017-06-29T19:16:49.557Z,977.93
2017-06-29T19:17:49.562Z,977.95
2017-06-29T19:18:49.562Z,977.96
2017-06-29T19:19:49.569Z,977.9
2017-06-29T19:20:49.569Z,977.93
2017-06-29T19:21:49.572Z,977.95
2017-06-29T19:22:49.575Z,977.92
2017-06-29T19:23:49.581Z,977.91
2017-06-29T19:24:49.581Z,977.93
2017-06-29T19:25:49.615Z,977.88
2017-06-29T19:26:49.585Z,977.87
2017-06-29T19:27:49.589Z,977.92
2017-06-29T19:28:49.593Z,977.93
2017-06-29T19:29:49.594Z,977.92
2017-06-29T19:30:49.597Z,977.95
2017-06-29T19:31:49.600Z,977.96
2017-06-29T19:32:49.603Z,977.89
2017-06-29T19:33:49.605Z,977.96
2017-06-29T19:34:49.609Z,977.95
2017-06-29T19:35:49.611Z,977.96
2017-06-29T19:36:49.615Z,978.02
2017-06-29T19:37:49.615Z,978.06
2017-06-29T19:38:49.619Z,978.05
2017-06-29T19:39:49.623Z,978.02
2017-06-29T19:40:49.625Z,978.02
2017-06-29T19:41:49.626Z,978.01
2017-06-29T19:42:49.629Z,978.01
2017-06-29T19:43:49.632Z,978
2017-06-29T19:44:49.634Z,978.01
2017-06-29T19:45:49.636Z,978
2017-06-29T19:46:49.639Z,978.03
2017-06-29T19:47:49.642Z,978.03
2017-06-29T19:48:49.645Z,977.98
2017-06-29T19:49:49.647Z,977.97
2017-06-29T19:50:49.663Z,977.95
2017-06-29T19:51:49.660Z,977.95
2017-06-29T19:52:49.660Z,977.97
2017-06-29T19:53:49.657Z,977.96
2017-06-29T19:54:49.660Z,977.97
2017-06-29T19:55:49.661Z,977.91
2017-06-29T19:56:49.664Z,977.91
2017-06-29T19:57:49.667Z,977.89
2017-06-29T19:58:49.670Z,977.87
2017-06-29T19:59:49.671Z,977.89
2017-06-29T20:00:49.674Z,977.85
2017-06-29T20:01:49.677Z,977.87
2017-06-29T20:02:49.681Z,977.89
2017-06-29T20:03:49.682Z,977.87
2017-06-29T20:04:49.687Z,977.94
2017-06-29T20:05:49.686Z,977.93
2017-06-29T20:06:49.690Z,977.95
2017-06-29T20:07:49.691Z,978.02
2017-06-29T20:08:49.695Z,978.04
2017-06-29T20:09:49.698Z,978.01
2017-06-29T20:10:49.700Z,977.98
2017-06-29T20:11:49.703Z,977.95
2017-06-29T20:12:49.707Z,977.95
2017-06-29T20:13:49.706Z,977.97
2017-06-29T20:14:49.711Z,978.02
2017-06-29T20:15:49.713Z,978.07
2017-06-29T20:16:49.717Z,978.16
2017-06-29T20:17:49.717Z,978.22
2017-06-29T20:18:49.720Z,978.26
2017-06-29T20:19:49.723Z,978.35
2017-06-29T20:20:49.722Z,978.39
2017-06-29T20:21:49.733Z,978.44
2017-06-29T20:22:49.728Z,978.45
2017-06-29T20:23:49.729Z,978.46
2017-06-29T20:24:49.732Z,978.46
2017-06-29T20:25:49.737Z,978.46
2017-06-29T20:26:49.736Z,978.47
2017-06-29T20:27:49.741Z,978.46
2017-06-29T20:28:49.791Z,978.38
2017-06-29T20:29:49.745Z,978.4
2017-06-29T20:30:49.745Z,978.38
2017-06-29T20:31:49.755Z,978.36
2017-06-29T20:32:49.753Z,978.4
2017-06-29T20:33:49.757Z,978.38
2017-06-29T20:34:49.756Z,978.42
2017-06-29T20:35:49.757Z,978.48
2017-06-29T20:36:49.764Z,978.46
2017-06-29T20:37:49.760Z,978.45
2017-06-29T20:38:49.763Z,978.45
2017-06-29T20:39:49.763Z,978.49
2017-06-29T20:40:49.769Z,978.54
2017-06-29T20:41:49.769Z,978.53
2017-06-29T20:42:49.772Z,978.59
2017-06-29T20:43:49.977Z,978.57
2017-06-29T20:44:49.775Z,978.59
2017-06-29T20:45:49.778Z,978.61
2017-06-29T20:46:49.782Z,978.63
2017-06-29T20:47:49.797Z,978.64
2017-06-29T20:48:49.784Z,978.66
2017-06-29T20:49:49.786Z,978.69
2017-06-29T20:50:49.796Z,978.68
2017-06-29T20:51:49.791Z,978.7
2017-06-29T20:52:49.792Z,978.7
2017-06-29T20:53:49.794Z,978.71
2017-06-29T20:54:49.796Z,978.71
2017-06-29T20:55:49.801Z,978.75
2017-06-29T20:56:49.801Z,978.75
2017-06-29T21:27:52.723Z,979.17
2017-06-29T21:28:52.654Z,979.28
2017-06-29T21:29:52.655Z,979.24
2017-06-29T21:30:52.647Z,979.24
2017-06-29T21:31:52.645Z,979.28
2017-06-29T21:32:52.645Z,979.29
2017-06-29T21:33:52.646Z,979.3
2017-06-29T21:34:52.642Z,979.31
2017-06-29T21:35:52.642Z,979.38
2017-06-29T21:36:52.642Z,979.36
2017-06-29T21:37:52.640Z,979.34
2017-06-29T21:38:52.642Z,979.4
2017-06-29T21:39:52.641Z,979.43
2017-06-29T21:40:52.643Z,979.46
2017-06-29T21:41:52.851Z,979.48
2017-06-29T21:42:52.694Z,979.51
2017-06-29T21:43:52.646Z,979.49
2017-06-29T21:44:52.645Z,979.51
2017-06-29T21:45:52.648Z,979.59
2017-06-29T21:46:52.646Z,979.51
2017-06-29T21:47:52.649Z,979.56
2017-06-29T21:48:52.649Z,979.57
2017-06-29T21:49:52.649Z,979.52
2017-06-29T21:50:52.651Z,979.58
2017-06-29T21:51:52.653Z,979.64
2017-06-29T21:52:52.654Z,979.63
2017-06-29T21:53:52.656Z,979.63
2017-06-29T21:54:52.657Z,979.66
2017-06-29T21:55:52.658Z,979.63
2017-06-29T21:56:52.659Z,979.62
2017-06-29T21:57:54.314Z,979.6
2017-06-29T21:58:52.663Z,979.59
2017-06-29T21:59:52.664Z,979.63
2017-06-29T22:00:52.666Z,979.56
2017-06-29T22:01:52.668Z,979.58
2017-06-29T22:02:52.672Z,979.6
2017-06-29T22:03:52.671Z,979.55
2017-06-29T22:04:52.673Z,979.54
2017-06-29T22:05:52.675Z,979.59
2017-06-29T22:06:52.677Z,979.59
2017-06-29T22:07:52.679Z,979.6
2017-06-29T22:08:52.680Z,979.64
2017-06-29T22:09:52.682Z,979.63
2017-06-29T22:10:52.686Z,979.67
2017-06-29T22:11:52.691Z,979.69
2017-06-29T22:12:52.688Z,979.67
2017-06-29T22:13:52.702Z,979.65
2017-06-29T22:14:52.691Z,979.65
2017-06-29T22:15:52.693Z,979.75
2017-06-29T22:16:52.695Z,979.69
2017-06-29T22:17:53.014Z,979.72
2017-06-29T22:18:52.699Z,979.71
2017-06-29T22:19:52.702Z,979.72
2017-06-29T22:20:52.706Z,979.74
2017-06-29T22:21:52.708Z,979.73
2017-06-29T22:22:52.717Z,979.78
2017-06-29T22:23:52.714Z,979.72
2017-06-29T22:24:52.715Z,979.78
2017-06-29T22:25:52.712Z,979.77
2017-06-29T22:26:52.714Z,979.74
2017-06-29T22:27:52.724Z,979.72
2017-06-29T22:28:52.723Z,979.76
2017-06-29T22:29:52.723Z,979.76
2017-06-29T22:30:52.722Z,979.78
2017-06-29T22:31:52.724Z,979.76
2017-06-29T22:32:52.733Z,979.75
2017-06-29T22:33:52.738Z,979.77
2017-06-29T22:34:52.728Z,979.74
2017-06-29T22:35:52.743Z,979.73
2017-06-29T22:36:52.733Z,979.74
2017-06-29T22:37:52.740Z,979.78
2017-06-29T22:38:52.744Z,979.81
2017-06-29T22:39:52.736Z,979.73
2017-06-29T22:40:52.780Z,979.76
